Kota Waris — S6RJ — position and weather

sailwx.info

Track history (hours):
 
Tides and Currents Weather Stations Pressure Air Temp Water Temp Dewpoint Dewpoint Depression Visibility Wind Speed Wind Dir Waves Ship Positions

Kota Waris

Last reported at 2015-Jul-30 11:23 UTC. Time now 2015-Aug-05 04:21 UTC.
Position N 01°16' E 104°09'.

Length 185 m; draft 7.1 m.

Type: Ship (hazmat cat A). MMSI: 564482000.

Date/timePositionNaut miles runAvg speedWind from/ knotsBaromVisibWave heightAir tempDewpointWater temp
2015-Jul-30 11:23N 01°16' E 104°09'1315.4
2015-Jul-30 10:33N 01°13' E 103°56'9 9.1
2015-Jul-30 09:33N 01°14' E 103°47'4 3.5
2015-Jul-30 08:31N 01°17' E 103°46'0 0.0
2015-Jul-30 07:31N 01°17' E 103°46'0 0.0
2015-Jul-30 06:32N 01°17' E 103°46'0 0.0
2015-Jul-30 05:33N 01°17' E 103°46'0 0.0
2015-Jul-30 04:33N 01°17' E 103°46'0 0.0
2015-Jul-30 03:33N 01°17' E 103°46'0 0.0
2015-Jul-30 02:32N 01°17' E 103°46'0 0.0
2015-Jul-30 01:32N 01°17' E 103°46'0 0.0
2015-Jul-30 00:33N 01°17' E 103°46'0 0.0
2015-Jul-29 23:33N 01°17' E 103°46'0 0.0
2015-Jul-29 22:33N 01°17' E 103°46'0 0.0
2015-Jul-29 21:33N 01°17' E 103°46'0 0.0
2015-Jul-29 20:33N 01°17' E 103°46'0 0.0
2015-Jul-29 19:33N 01°17' E 103°46'0 0.0
2015-Jul-29 18:33N 01°17' E 103°46'0 0.0
2015-Jul-29 17:33N 01°17' E 103°46'0 0.0
2015-Jul-29 16:33N 01°17' E 103°46'0 0.0
2015-Jul-29 15:33N 01°17' E 103°46'0 0.0
2015-Jul-29 14:33N 01°17' E 103°46'0 0.0
2015-Jul-29 13:33N 01°17' E 103°46'0 0.0
2015-Jul-29 12:33N 01°17' E 103°46'0 0.0
2015-Jul-29 11:33N 01°17' E 103°46'0 0.0
2015-Jul-29 10:33N 01°17' E 103°46'0 0.0
2015-Jul-29 09:32N 01°17' E 103°46'1 1.5
2015-Jul-29 08:33N 01°17' E 103°45'8 7.8
2015-Jul-29 07:31N 01°13' E 103°52'5 4.8
2015-Jul-29 06:33N 01°15' E 103°56'1212.1
2015-Jul-29 05:33N 01°17' E 104°08'  
2015-Jul-26 09:33N 16°12' E 108°15'5 4.1
2015-Jul-26 08:19N 16°07' E 108°13'0 0.0
2015-Jul-26 07:33N 16°07' E 108°13'0 0.0
2015-Jul-26 06:33N 16°07' E 108°13'0 0.0
2015-Jul-26 05:33N 16°07' E 108°13'0 0.1
2015-Jul-26 04:33N 16°07' E 108°13'3 2.8
2015-Jul-26 03:34N 16°09' E 108°11'0 0.2
2015-Jul-26 02:32N 16°09' E 108°11'0 0.0
2015-Jul-26 01:33N 16°09' E 108°11'0 0.1
2015-Jul-26 00:33N 16°09' E 108°11'0 0.0
2015-Jul-25 23:33N 16°09' E 108°11'0 0.1
2015-Jul-25 22:33N 16°09' E 108°11'1 1.3
2015-Jul-25 21:33N 16°10' E 108°12'1111.1
2015-Jul-25 20:33N 16°18' E 108°20'257 5.0
2015-Jul-23 17:33N 20°10' E 110°16'139 8.1
2015-Jul-23 00:32N 21°36' E 108°20'0 0.0
2015-Jul-22 19:08N 21°36' E 108°20'0 0.0
2015-Jul-22 18:11N 21°36' E 108°20'  
Track history (hours):
 
Tides and Currents Weather Stations Pressure Air Temp Water Temp Dewpoint Dewpoint Depression Visibility Wind Speed Wind Dir Waves Ship Positions

Kota Waris

Last reported at 2015-Jul-30 11:23 UTC. Time now 2015-Aug-05 04:21 UTC.
Position N 01°16' E 104°09'.

Length 185 m; draft 7.1 m.

Type: Ship (hazmat cat A). MMSI: 564482000.

Date/timePositionNaut miles runAvg speedWind from/ knotsBaromVisibWave heightAir tempDewpointWater temp
2015-Jul-30 11:23N 01°16' E 104°09'1315.4
2015-Jul-30 10:33N 01°13' E 103°56'9 9.1
2015-Jul-30 09:33N 01°14' E 103°47'4 3.5
2015-Jul-30 08:31N 01°17' E 103°46'0 0.0
2015-Jul-30 07:31N 01°17' E 103°46'0 0.0
2015-Jul-30 06:32N 01°17' E 103°46'0 0.0
2015-Jul-30 05:33N 01°17' E 103°46'0 0.0
2015-Jul-30 04:33N 01°17' E 103°46'0 0.0
2015-Jul-30 03:33N 01°17' E 103°46'0 0.0
2015-Jul-30 02:32N 01°17' E 103°46'0 0.0
2015-Jul-30 01:32N 01°17' E 103°46'0 0.0
2015-Jul-30 00:33N 01°17' E 103°46'0 0.0
2015-Jul-29 23:33N 01°17' E 103°46'0 0.0
2015-Jul-29 22:33N 01°17' E 103°46'0 0.0
2015-Jul-29 21:33N 01°17' E 103°46'0 0.0
2015-Jul-29 20:33N 01°17' E 103°46'0 0.0
2015-Jul-29 19:33N 01°17' E 103°46'0 0.0
2015-Jul-29 18:33N 01°17' E 103°46'0 0.0
2015-Jul-29 17:33N 01°17' E 103°46'0 0.0
2015-Jul-29 16:33N 01°17' E 103°46'0 0.0
2015-Jul-29 15:33N 01°17' E 103°46'0 0.0
2015-Jul-29 14:33N 01°17' E 103°46'0 0.0
2015-Jul-29 13:33N 01°17' E 103°46'0 0.0
2015-Jul-29 12:33N 01°17' E 103°46'0 0.0
2015-Jul-29 11:33N 01°17' E 103°46'0 0.0
2015-Jul-29 10:33N 01°17' E 103°46'0 0.0
2015-Jul-29 09:32N 01°17' E 103°46'1 1.5
2015-Jul-29 08:33N 01°17' E 103°45'8 7.8
2015-Jul-29 07:31N 01°13' E 103°52'5 4.8
2015-Jul-29 06:33N 01°15' E 103°56'1212.1
2015-Jul-29 05:33N 01°17' E 104°08'  
2015-Jul-26 09:33N 16°12' E 108°15'5 4.1
2015-Jul-26 08:19N 16°07' E 108°13'0 0.0
2015-Jul-26 07:33N 16°07' E 108°13'0 0.0
2015-Jul-26 06:33N 16°07' E 108°13'0 0.0
2015-Jul-26 05:33N 16°07' E 108°13'0 0.1
2015-Jul-26 04:33N 16°07' E 108°13'3 2.8
2015-Jul-26 03:34N 16°09' E 108°11'0 0.2
2015-Jul-26 02:32N 16°09' E 108°11'0 0.0
2015-Jul-26 01:33N 16°09' E 108°11'0 0.1
2015-Jul-26 00:33N 16°09' E 108°11'0 0.0
2015-Jul-25 23:33N 16°09' E 108°11'0 0.1
2015-Jul-25 22:33N 16°09' E 108°11'1 1.3
2015-Jul-25 21:33N 16°10' E 108°12'1111.1
2015-Jul-25 20:33N 16°18' E 108°20'257 5.0
2015-Jul-23 17:33N 20°10' E 110°16'139 8.1
2015-Jul-23 00:32N 21°36' E 108°20'0 0.0
2015-Jul-22 19:08N 21°36' E 108°20'0 0.0
2015-Jul-22 18:11N 21°36' E 108°20'  

Dump ship's entire track history